createdAt,value
2017-11-10T00:00:40.143Z,29.60
2017-11-10T00:03:07.586Z,30.25
2017-11-10T00:05:35.021Z,30.10
2017-11-10T00:08:02.463Z,29.67
2017-11-10T00:10:29.986Z,30.00
2017-11-10T00:12:57.414Z,30.90
2017-11-10T00:15:24.843Z,31.65
2017-11-10T00:17:52.284Z,30.25
2017-11-10T00:20:19.905Z,29.30
2017-11-10T00:22:51.986Z,31.12
2017-11-10T00:25:20.175Z,30.27
2017-11-10T00:27:47.616Z,30.55
2017-11-10T00:30:17.748Z,30.23
2017-11-10T00:32:45.820Z,29.37
2017-11-10T00:35:14.501Z,31.15
2017-11-10T00:37:41.957Z,31.30
2017-11-10T00:40:09.677Z,30.50
2017-11-10T00:42:37.131Z,30.00
2017-11-10T00:45:04.570Z,29.63
2017-11-10T00:47:34.086Z,32.95
2017-11-10T00:50:05.995Z,33.65
2017-11-10T00:52:37.400Z,34.88
2017-11-10T00:55:05.737Z,34.13
2017-11-10T00:57:33.165Z,31.23
2017-11-10T01:00:00.613Z,34.13
2017-11-10T01:02:28.042Z,36.47
2017-11-10T01:04:55.490Z,31.85
2017-11-10T01:07:22.928Z,32.35
2017-11-10T01:09:51.077Z,35.03
2017-11-10T01:12:18.538Z,30.05
2017-11-10T01:14:45.978Z,30.20
2017-11-10T01:17:13.409Z,31.87
2017-11-10T01:22:17.066Z,32.88
2017-11-10T01:24:45.447Z,35.63
2017-11-10T01:27:13.473Z,35.75
2017-11-10T01:29:40.926Z,31.65
2017-11-10T01:32:08.382Z,32.60
2017-11-10T01:34:36.267Z,33.22
2017-11-10T01:37:03.702Z,34.35
2017-11-10T01:39:31.166Z,33.17
2017-11-10T01:42:01.877Z,34.03
2017-11-10T01:44:34.099Z,32.70
2017-11-10T01:47:19.455Z,32.05
2017-11-10T01:49:52.482Z,32.00
2017-11-10T01:52:20.757Z,31.75
2017-11-10T01:54:50.550Z,33.40
2017-11-10T01:57:17.990Z,32.60
2017-11-10T01:59:45.440Z,34.33
2017-11-10T02:02:12.869Z,33.28
2017-11-10T02:04:40.306Z,35.42
2017-11-10T02:07:07.769Z,32.28
2017-11-10T02:09:35.246Z,31.98
2017-11-10T02:12:02.678Z,30.77
2017-11-10T02:14:30.126Z,30.83
2017-11-10T02:16:57.563Z,32.65
2017-11-10T02:19:24.990Z,32.33
2017-11-10T02:21:52.437Z,32.67
2017-11-10T02:24:19.879Z,31.98
2017-11-10T02:26:47.305Z,31.33
2017-11-10T02:29:14.750Z,31.10
2017-11-10T02:31:42.193Z,31.00
2017-11-10T02:34:09.659Z,30.80
2017-11-10T02:36:37.104Z,31.23
2017-11-10T02:39:04.534Z,31.00
2017-11-10T02:41:32.394Z,29.95
2017-11-10T02:43:59.824Z,30.35
2017-11-10T02:46:27.265Z,31.73
2017-11-10T02:48:54.707Z,31.92
2017-11-10T02:51:22.142Z,30.70
2017-11-10T02:53:49.589Z,32.35
2017-11-10T02:56:17.022Z,29.55
2017-11-10T02:58:44.459Z,30.85
2017-11-10T03:01:11.906Z,30.23
2017-11-10T03:03:39.367Z,30.62
2017-11-10T03:06:06.803Z,30.15
2017-11-10T03:08:34.310Z,29.55
2017-11-10T03:11:01.756Z,28.87
2017-11-10T03:13:29.189Z,29.25
2017-11-10T03:15:56.641Z,27.75
2017-11-10T03:18:24.080Z,26.42
2017-11-10T03:20:51.517Z,25.95
2017-11-10T03:23:18.984Z,27.70
2017-11-10T03:25:46.414Z,24.75
2017-11-10T03:28:13.856Z,26.23
2017-11-10T03:30:41.311Z,27.77
2017-11-10T03:33:08.737Z,28.08
2017-11-10T03:35:36.174Z,27.65
2017-11-10T03:38:03.627Z,27.17
2017-11-10T03:40:31.058Z,26.33
2017-11-10T03:42:58.486Z,26.67
2017-11-10T03:45:25.933Z,26.65
2017-11-10T03:47:53.371Z,27.87
2017-11-10T03:50:20.805Z,26.48
2017-11-10T03:52:48.253Z,26.55
2017-11-10T03:55:15.693Z,25.60
2017-11-10T03:57:43.128Z,24.20
2017-11-10T04:00:10.575Z,24.55
2017-11-10T04:02:38.009Z,25.70
2017-11-10T04:05:05.454Z,26.02
2017-11-10T04:07:32.898Z,25.85
2017-11-10T04:10:00.330Z,24.23
2017-11-10T04:12:27.762Z,23.83
2017-11-10T04:14:55.210Z,23.30
2017-11-10T04:17:22.637Z,23.75
2017-11-10T04:19:50.069Z,21.48
2017-11-10T04:22:17.527Z,21.77
2017-11-10T04:24:44.955Z,21.35
2017-11-10T04:27:12.382Z,21.90
2017-11-10T04:29:39.849Z,22.13
2017-11-10T04:32:07.277Z,22.73
2017-11-10T04:34:34.709Z,23.70
2017-11-10T04:37:02.163Z,22.45
2017-11-10T04:39:29.605Z,22.60
2017-11-10T04:41:57.033Z,21.35
2017-11-10T04:44:24.478Z,22.55
2017-11-10T04:46:51.910Z,21.98
2017-11-10T04:49:19.347Z,22.75
2017-11-10T04:51:46.807Z,24.60
2017-11-10T04:54:14.241Z,25.55
2017-11-10T04:56:41.684Z,24.52
2017-11-10T04:59:09.137Z,22.42
2017-11-10T05:01:36.588Z,21.60
2017-11-10T05:04:04.010Z,24.12
2017-11-10T05:06:31.462Z,23.35
2017-11-10T05:08:58.906Z,23.23
2017-11-10T05:11:26.334Z,25.62
2017-11-10T05:13:53.787Z,24.73
2017-11-10T05:16:21.218Z,22.42
2017-11-10T05:18:48.649Z,22.57
2017-11-10T05:21:16.099Z,23.58
2017-11-10T05:23:43.537Z,23.42
2017-11-10T05:26:10.978Z,22.13
2017-11-10T05:28:40.161Z,24.48
2017-11-10T05:31:07.624Z,24.40
2017-11-10T05:33:35.062Z,25.10
2017-11-10T05:36:02.506Z,23.58
2017-11-10T05:38:29.929Z,24.50
2017-11-10T05:40:57.366Z,22.48
2017-11-10T05:43:24.821Z,22.15
2017-11-10T05:45:52.246Z,22.47
2017-11-10T05:48:19.675Z,24.10
2017-11-10T05:50:47.126Z,22.65
2017-11-10T05:53:14.558Z,24.50
2017-11-10T05:55:41.992Z,23.50
2017-11-10T05:58:09.437Z,22.17
2017-11-10T06:00:36.871Z,22.87
2017-11-10T06:03:04.316Z,22.98
2017-11-10T06:05:31.794Z,22.95
2017-11-10T06:07:59.233Z,22.20
2017-11-10T06:10:26.630Z,22.70
2017-11-10T06:12:54.114Z,21.98
2017-11-10T06:15:21.555Z,23.00
2017-11-10T06:17:48.984Z,21.58
2017-11-10T06:20:16.438Z,22.70
2017-11-10T06:22:43.865Z,21.33
2017-11-10T06:27:46.797Z,23.75
2017-11-10T06:30:14.266Z,21.42
2017-11-10T06:32:42.738Z,23.77
2017-11-10T06:35:10.218Z,21.77
2017-11-10T06:37:37.670Z,23.70
2017-11-10T06:40:05.102Z,21.95
2017-11-10T06:42:32.537Z,22.10
2017-11-10T06:44:59.981Z,23.23
2017-11-10T06:47:27.418Z,21.80
2017-11-10T06:49:54.856Z,22.67
2017-11-10T06:52:22.417Z,21.90
2017-11-10T06:54:49.853Z,21.65
2017-11-10T06:57:17.281Z,21.30
2017-11-10T06:59:44.735Z,20.27
2017-11-10T07:02:12.169Z,20.37
2017-11-10T07:04:39.601Z,20.48
2017-11-10T07:07:07.060Z,21.42
2017-11-10T07:09:34.493Z,21.55
2017-11-10T07:12:01.930Z,21.00
2017-11-10T07:14:29.381Z,20.27
2017-11-10T07:16:56.879Z,21.87
2017-11-10T07:19:24.313Z,21.40
2017-11-10T07:21:51.752Z,20.33
2017-11-10T07:24:19.205Z,22.30
2017-11-10T07:26:46.642Z,20.75
2017-11-10T07:29:14.095Z,22.35
2017-11-10T07:31:41.530Z,21.45
2017-11-10T07:34:08.966Z,20.30
2017-11-10T07:36:36.452Z,21.60
2017-11-10T07:39:03.882Z,21.37
2017-11-10T07:41:31.313Z,21.20
2017-11-10T07:43:58.748Z,20.20
2017-11-10T07:46:26.193Z,22.08
2017-11-10T07:48:53.613Z,19.97
2017-11-10T07:51:21.061Z,21.37
2017-11-10T07:53:48.477Z,20.40
2017-11-10T07:56:16.731Z,24.67
2017-11-10T07:58:44.170Z,20.83
2017-11-10T08:01:11.590Z,21.30
2017-11-10T08:03:39.023Z,22.40
2017-11-10T08:06:06.471Z,21.30
2017-11-10T08:08:33.905Z,21.40
2017-11-10T08:11:01.322Z,21.63
2017-11-10T08:13:28.781Z,19.83
2017-11-10T08:15:56.236Z,22.80
2017-11-10T08:18:23.645Z,20.05
2017-11-10T08:20:51.100Z,21.23
2017-11-10T08:23:18.534Z,21.60
2017-11-10T08:25:45.954Z,19.77
2017-11-10T08:28:13.406Z,22.17
2017-11-10T08:30:40.838Z,22.80
2017-11-10T08:33:08.265Z,20.25
2017-11-10T08:35:35.709Z,22.87
2017-11-10T08:38:03.159Z,21.98
2017-11-10T08:40:30.594Z,22.90
2017-11-10T08:42:58.052Z,21.92
2017-11-10T08:45:25.497Z,22.30
2017-11-10T08:47:52.930Z,22.05
2017-11-10T08:50:20.369Z,22.90
2017-11-10T08:52:47.802Z,22.15
2017-11-10T08:55:15.244Z,22.77
2017-11-10T08:57:42.690Z,25.12
2017-11-10T09:00:10.137Z,23.95
2017-11-10T09:02:37.575Z,25.60
2017-11-10T09:05:05.015Z,24.97
2017-11-10T09:07:32.454Z,25.62
2017-11-10T09:09:59.996Z,24.17
2017-11-10T09:12:27.442Z,24.60
2017-11-10T09:14:54.870Z,24.98
2017-11-10T09:17:22.306Z,23.30
2017-11-10T09:19:49.797Z,23.12
2017-11-10T09:22:17.234Z,24.05
2017-11-10T09:24:44.663Z,22.50
2017-11-10T09:27:12.115Z,22.52
2017-11-10T09:29:40.261Z,21.75
2017-11-10T09:45:43.410Z,19.20
2017-11-10T09:48:16.431Z,19.50
2017-11-10T09:50:49.571Z,17.05
2017-11-10T10:07:05.730Z,18.52
2017-11-10T10:23:10.997Z,16.48
2017-11-10T10:25:38.542Z,16.45
2017-11-10T10:28:06.005Z,14.60
2017-11-10T10:30:33.501Z,15.85
2017-11-10T10:33:00.938Z,15.23
2017-11-10T10:35:28.498Z,14.60
2017-11-10T10:37:56.057Z,16.20
2017-11-10T10:40:23.579Z,16.08
2017-11-10T10:42:51.205Z,14.87
2017-11-10T10:45:18.660Z,16.73
2017-11-10T10:47:46.125Z,16.42
2017-11-10T10:50:13.712Z,16.50
2017-11-10T10:52:41.235Z,17.80
2017-11-10T10:55:10.410Z,16.80
2017-11-10T10:57:37.950Z,17.27
2017-11-10T11:00:06.204Z,18.05
2017-11-10T11:02:33.754Z,18.65
2017-11-10T11:05:01.149Z,17.80
2017-11-10T11:07:28.642Z,18.47
2017-11-10T11:09:56.138Z,16.40
2017-11-10T11:12:23.632Z,17.02
2017-11-10T11:14:51.077Z,18.87
2017-11-10T11:17:18.538Z,20.13
2017-11-10T11:19:45.997Z,18.40
2017-11-10T11:22:13.430Z,20.40
2017-11-10T11:24:40.885Z,18.77
2017-11-10T11:27:11.493Z,18.40
2017-11-10T11:29:38.928Z,19.23
2017-11-10T11:32:06.381Z,18.90
2017-11-10T11:34:33.910Z,18.87
2017-11-10T11:37:02.278Z,18.13
2017-11-10T11:39:31.305Z,19.25
2017-11-10T11:41:58.793Z,19.75
2017-11-10T11:44:41.941Z,17.80
2017-11-10T11:47:20.569Z,19.90
2017-11-10T11:52:29.766Z,17.25
2017-11-10T11:54:58.144Z,17.75
2017-11-10T11:57:25.594Z,17.25
2017-11-10T12:13:26.840Z,17.60
2017-11-10T12:15:54.342Z,17.83
2017-11-10T12:18:22.345Z,17.45
2017-11-10T12:20:50.360Z,16.80
2017-11-10T12:23:17.822Z,16.98
2017-11-10T12:25:45.298Z,17.77
2017-11-10T12:28:12.781Z,16.17
2017-11-10T12:30:40.276Z,17.30
2017-11-10T12:33:08.108Z,17.77
2017-11-10T12:35:35.629Z,18.08
2017-11-10T12:38:03.110Z,18.05
2017-11-10T12:40:30.545Z,17.08
2017-11-10T12:42:57.998Z,17.02
2017-11-10T12:45:26.097Z,18.62
2017-11-10T12:47:53.867Z,17.37
2017-11-10T12:50:24.507Z,17.30
2017-11-10T12:52:57.146Z,17.40
2017-11-10T12:55:24.601Z,16.20
2017-11-10T13:00:25.887Z,16.33
2017-11-10T13:02:56.122Z,15.50
2017-11-10T13:05:24.250Z,16.48
2017-11-10T13:07:51.694Z,16.37
2017-11-10T13:10:19.134Z,16.48
2017-11-10T13:12:46.578Z,16.33
2017-11-10T13:15:14.030Z,17.70
2017-11-10T13:17:41.461Z,16.85
2017-11-10T13:20:08.904Z,17.10
2017-11-10T13:22:36.354Z,18.65
2017-11-10T13:25:03.798Z,17.15
2017-11-10T13:27:31.250Z,18.27
2017-11-10T13:29:58.707Z,17.98
2017-11-10T13:32:26.141Z,17.37
2017-11-10T13:34:53.579Z,16.58
2017-11-10T13:37:21.033Z,17.50
2017-11-10T13:39:48.465Z,17.95
2017-11-10T13:42:15.894Z,18.10
2017-11-10T13:44:43.357Z,15.85
2017-11-10T13:47:10.791Z,16.15
2017-11-10T13:49:38.222Z,16.65
2017-11-10T13:52:05.670Z,16.55
2017-11-10T13:54:33.102Z,14.45
2017-11-10T13:57:02.299Z,15.05
2017-11-10T13:59:29.750Z,13.60
2017-11-10T14:01:57.181Z,15.32
2017-11-10T14:04:28.175Z,15.48
2017-11-10T14:06:55.621Z,13.07
2017-11-10T14:09:23.073Z,13.75
2017-11-10T14:11:50.510Z,12.98
2017-11-10T14:14:17.946Z,14.13
2017-11-10T14:16:54.657Z,12.80
2017-11-10T14:19:22.178Z,12.20
2017-11-10T14:21:49.619Z,11.82
2017-11-10T14:24:17.075Z,12.98
2017-11-10T14:26:44.501Z,12.32
2017-11-10T14:29:12.142Z,12.80
2017-11-10T14:31:39.602Z,14.93
2017-11-10T14:34:07.049Z,13.00
2017-11-10T14:36:34.486Z,11.60
2017-11-10T14:39:01.942Z,12.40
2017-11-10T14:41:29.375Z,11.63
2017-11-10T14:43:56.810Z,11.63
2017-11-10T14:46:24.270Z,10.77
2017-11-10T14:48:51.718Z,12.40
2017-11-10T14:51:19.166Z,12.10
2017-11-10T14:53:46.696Z,12.18
2017-11-10T14:56:14.138Z,11.07
2017-11-10T14:58:41.570Z,10.32
2017-11-10T15:01:09.056Z,10.23
2017-11-10T15:03:36.493Z,10.98
2017-11-10T15:06:04.036Z,10.05
2017-11-10T15:08:31.934Z,10.95
2017-11-10T15:13:33.211Z,10.82
2017-11-10T15:16:00.661Z,9.98
2017-11-10T15:18:28.157Z,9.80
2017-11-10T15:20:55.618Z,10.30
2017-11-10T15:23:24.231Z,8.27
2017-11-10T15:25:51.734Z,9.23
2017-11-10T15:28:19.269Z,9.70
2017-11-10T15:30:46.707Z,9.27
2017-11-10T15:33:14.142Z,9.57
2017-11-10T15:35:41.597Z,8.98
2017-11-10T15:38:09.018Z,7.90
2017-11-10T15:40:36.455Z,9.38
2017-11-10T15:43:03.922Z,8.40
2017-11-10T15:45:31.345Z,8.57
2017-11-10T15:47:58.788Z,9.52
2017-11-10T15:50:26.280Z,8.80
2017-11-10T15:52:53.702Z,9.65
2017-11-10T15:55:21.134Z,8.93
2017-11-10T15:57:48.588Z,10.10
2017-11-10T16:00:16.023Z,10.57
2017-11-10T16:02:43.462Z,10.00
2017-11-10T16:05:10.905Z,10.93
2017-11-10T16:07:38.349Z,10.10
2017-11-10T16:10:05.781Z,9.85
2017-11-10T16:12:33.234Z,9.68
2017-11-10T16:15:00.665Z,10.07
2017-11-10T16:17:28.097Z,10.45
2017-11-10T16:19:55.546Z,10.43
2017-11-10T16:22:22.975Z,9.80
2017-11-10T16:24:50.425Z,8.95
2017-11-10T16:27:17.878Z,8.15
2017-11-10T16:29:45.301Z,8.77
2017-11-10T16:32:12.736Z,8.80
2017-11-10T16:34:40.185Z,7.62
2017-11-10T16:37:07.623Z,8.18
2017-11-10T16:39:35.049Z,8.15
2017-11-10T16:42:02.506Z,7.57
2017-11-10T16:44:29.951Z,8.82
2017-11-10T16:46:57.390Z,7.43
2017-11-10T16:49:24.825Z,8.13
2017-11-10T16:51:52.262Z,8.27
2017-11-10T16:54:19.701Z,6.47
2017-11-10T16:56:47.130Z,6.07
2017-11-10T16:59:14.558Z,6.35
2017-11-10T17:01:42.007Z,7.18
2017-11-10T17:04:09.429Z,6.40
2017-11-10T17:06:36.846Z,5.93
2017-11-10T17:09:04.298Z,5.93
2017-11-10T17:11:31.730Z,6.45
2017-11-10T17:13:59.201Z,5.57
2017-11-10T17:16:26.654Z,5.62
2017-11-10T17:18:54.074Z,4.97
2017-11-10T17:21:21.502Z,5.30
2017-11-10T17:23:48.947Z,4.82
2017-11-10T17:26:16.376Z,4.65
2017-11-10T17:28:43.799Z,5.07
2017-11-10T17:31:11.242Z,4.85
2017-11-10T17:33:38.673Z,4.95
2017-11-10T17:36:06.102Z,4.60
2017-11-10T17:38:33.545Z,5.35
2017-11-10T17:41:00.985Z,5.12
2017-11-10T17:43:28.414Z,4.75
2017-11-10T17:45:55.885Z,4.50
2017-11-10T17:48:23.351Z,4.40
2017-11-10T17:50:50.772Z,4.63
2017-11-10T17:53:18.237Z,4.78
2017-11-10T17:55:45.697Z,4.07
2017-11-10T17:58:13.111Z,4.97
2017-11-10T18:00:40.537Z,4.60
2017-11-10T18:03:07.968Z,4.50
2017-11-10T18:05:35.385Z,4.25
2017-11-10T18:08:02.835Z,4.65
2017-11-10T18:10:30.268Z,4.78
2017-11-10T18:12:57.739Z,4.20
2017-11-10T18:15:25.182Z,4.30
2017-11-10T18:17:52.634Z,4.07
2017-11-10T18:20:20.076Z,4.65
2017-11-10T18:22:47.553Z,4.57
2017-11-10T18:25:14.992Z,4.37
2017-11-10T18:27:42.436Z,4.50
2017-11-10T18:30:09.865Z,4.30
2017-11-10T18:32:37.306Z,4.55
2017-11-10T18:35:04.725Z,4.50
2017-11-10T18:37:32.139Z,4.10
2017-11-10T18:39:59.578Z,4.75
2017-11-10T18:42:27.002Z,4.15
2017-11-10T18:44:54.414Z,4.47
2017-11-10T18:47:21.861Z,4.30
2017-11-10T18:49:49.274Z,4.27
2017-11-10T18:52:16.691Z,4.33
2017-11-10T18:54:45.078Z,4.28
2017-11-10T18:57:12.502Z,4.55
2017-11-10T18:59:39.926Z,4.30
2017-11-10T19:02:07.389Z,4.05
2017-11-10T19:04:34.820Z,4.22
2017-11-10T19:07:02.242Z,4.47
2017-11-10T19:09:29.680Z,4.40
2017-11-10T19:11:57.122Z,4.60
2017-11-10T19:14:24.542Z,4.10
2017-11-10T19:16:51.982Z,3.95
2017-11-10T19:19:19.406Z,4.40
2017-11-10T19:21:46.830Z,3.95
2017-11-10T19:24:14.278Z,4.70
2017-11-10T19:26:41.701Z,4.87
2017-11-10T19:29:09.155Z,5.78
2017-11-10T19:31:36.767Z,4.90
2017-11-10T19:34:04.495Z,4.70
2017-11-10T19:36:32.984Z,5.00
2017-11-10T19:39:00.975Z,4.93
2017-11-10T19:41:29.170Z,4.37
2017-11-10T19:43:56.997Z,4.28
2017-11-10T19:46:24.912Z,4.60
2017-11-10T19:48:53.017Z,3.90
2017-11-10T19:51:20.991Z,4.10
2017-11-10T19:53:49.348Z,4.18
2017-11-10T19:56:17.679Z,4.10
2017-11-10T19:58:46.643Z,4.20
2017-11-10T20:01:15.229Z,3.47
2017-11-10T20:03:49.230Z,3.50
2017-11-10T20:06:17.797Z,4.15
2017-11-10T20:08:47.256Z,4.00
2017-11-10T20:11:16.002Z,4.32
2017-11-10T20:13:44.510Z,4.37
2017-11-10T20:16:13.175Z,4.22
2017-11-10T20:18:41.795Z,4.30
2017-11-10T20:21:10.225Z,4.30
2017-11-10T20:26:17.045Z,4.05
2017-11-10T20:28:45.478Z,4.22
2017-11-10T20:31:14.152Z,4.53
2017-11-10T20:33:42.556Z,5.05
2017-11-10T20:36:10.904Z,4.50
2017-11-10T20:38:39.411Z,4.10
2017-11-10T20:41:07.883Z,4.32
2017-11-10T20:43:36.273Z,4.37
2017-11-10T20:46:04.969Z,4.62
2017-11-10T20:48:33.446Z,4.80
2017-11-10T20:51:01.850Z,5.25
2017-11-10T20:53:30.336Z,5.30
2017-11-10T20:55:58.755Z,4.70
2017-11-10T20:58:27.728Z,4.50
2017-11-10T21:00:56.223Z,4.90
2017-11-10T21:03:24.610Z,5.30
2017-11-10T21:05:52.995Z,5.20
2017-11-10T21:08:21.595Z,5.60
2017-11-10T21:10:49.976Z,4.40
2017-11-10T21:13:18.377Z,5.10
2017-11-10T21:15:46.881Z,5.18
2017-11-10T21:18:15.271Z,4.90
2017-11-10T21:20:43.684Z,5.07
2017-11-10T21:23:12.445Z,5.10
2017-11-10T21:25:41.139Z,5.30
2017-11-10T21:28:09.952Z,5.50
2017-11-10T21:30:38.649Z,4.90
2017-11-10T21:33:07.036Z,5.10
2017-11-10T21:35:35.420Z,5.00
2017-11-10T21:38:04.840Z,6.90
2017-11-10T21:40:33.195Z,5.20
2017-11-10T21:43:01.669Z,5.07
2017-11-10T21:45:30.164Z,5.40
2017-11-10T21:47:58.498Z,4.80
2017-11-10T21:50:26.962Z,4.63
2017-11-10T21:52:55.507Z,5.60
2017-11-10T21:55:23.800Z,5.00
2017-11-10T21:57:51.729Z,5.10
2017-11-10T22:00:19.760Z,4.97
2017-11-10T22:02:47.865Z,5.00
2017-11-10T22:05:15.546Z,4.93
2017-11-10T22:07:43.013Z,5.90
2017-11-10T22:10:10.851Z,5.70
2017-11-10T22:12:38.456Z,6.10
2017-11-10T22:15:05.940Z,5.65
2017-11-10T22:17:33.364Z,5.70
2017-11-10T22:20:00.825Z,5.80
2017-11-10T22:22:28.315Z,5.23
2017-11-10T22:24:55.725Z,5.73
2017-11-10T22:27:23.161Z,6.07
2017-11-10T22:29:50.614Z,5.90
2017-11-10T22:32:18.025Z,6.10
2017-11-10T22:34:45.437Z,6.07
2017-11-10T22:37:12.882Z,6.90
2017-11-10T22:39:40.302Z,6.43
2017-11-10T22:42:07.721Z,7.90
2017-11-10T22:44:35.179Z,7.43
2017-11-10T22:47:02.611Z,8.63
2017-11-10T22:49:30.046Z,8.23
2017-11-10T22:51:57.483Z,7.45
2017-11-10T22:54:24.929Z,8.13
2017-11-10T22:56:52.383Z,9.17
2017-11-10T22:59:19.818Z,9.53
2017-11-10T23:01:47.261Z,10.27
2017-11-10T23:04:14.709Z,10.50
2017-11-10T23:06:42.135Z,9.80
2017-11-10T23:09:09.578Z,10.95
2017-11-10T23:11:37.030Z,11.05
2017-11-10T23:14:04.453Z,11.93
2017-11-10T23:16:31.915Z,11.38
2017-11-10T23:18:59.657Z,12.13
2017-11-10T23:21:27.106Z,11.75
2017-11-10T23:23:54.538Z,13.45
2017-11-10T23:26:21.983Z,11.83
2017-11-10T23:28:49.410Z,12.83
2017-11-10T23:31:16.854Z,12.13
2017-11-10T23:33:44.565Z,13.30
2017-11-10T23:36:12.019Z,11.90
2017-11-10T23:38:39.447Z,13.73
2017-11-10T23:41:06.870Z,13.00
2017-11-10T23:43:34.315Z,13.30
2017-11-10T23:46:01.742Z,13.35
2017-11-10T23:48:29.182Z,12.13
2017-11-10T23:50:56.632Z,12.30
2017-11-10T23:53:24.070Z,11.95
2017-11-10T23:55:51.498Z,12.45
2017-11-10T23:58:18.930Z,13.33
